sensor_id;sensor_type;location;lat;lon;timestamp;pressure;altitude;pressure_sealevel;temperature;humidity
70781;BME280;59514;48.810;2.134;2023-03-20T00:00:44;100834.97;;;5.37;88.77
70781;BME280;59514;48.810;2.134;2023-03-20T00:03:11;100836.81;;;5.37;87.51
70781;BME280;59514;48.810;2.134;2023-03-20T00:05:38;100829.88;;;5.28;88.16
70781;BME280;59514;48.810;2.134;2023-03-20T00:08:03;100827.03;;;5.14;88.99
70781;BME280;59514;48.810;2.134;2023-03-20T00:10:55;100831.13;;;5.17;88.93
70781;BME280;59514;48.810;2.134;2023-03-20T00:13:24;100833.19;;;5.15;89.35
70781;BME280;59514;48.810;2.134;2023-03-20T00:15:52;100835.53;;;5.10;88.04
70781;BME280;59514;48.810;2.134;2023-03-20T00:18:20;100841.22;;;5.07;89.09
70781;BME280;59514;48.810;2.134;2023-03-20T00:20:48;100842.34;;;5.12;89.52
70781;BME280;59514;48.810;2.134;2023-03-20T00:23:14;100847.72;;;5.04;90.61
70781;BME280;59514;48.810;2.134;2023-03-20T00:25:41;100845.59;;;5.00;91.44
70781;BME280;59514;48.810;2.134;2023-03-20T00:30:57;100850.56;;;5.03;90.62
70781;BME280;59514;48.810;2.134;2023-03-20T00:33:22;100835.41;;;5.03;90.28
70781;BME280;59514;48.810;2.134;2023-03-20T00:35:48;100839.91;;;5.03;89.59
70781;BME280;59514;48.810;2.134;2023-03-20T00:38:13;100841.28;;;4.99;90.61
70781;BME280;59514;48.810;2.134;2023-03-20T00:40:38;100842.63;;;4.95;89.25
70781;BME280;59514;48.810;2.134;2023-03-20T00:43:04;100847.47;;;4.91;90.45
70781;BME280;59514;48.810;2.134;2023-03-20T00:45:30;100839.00;;;4.88;89.43
70781;BME280;59514;48.810;2.134;2023-03-20T00:47:58;100837.44;;;4.79;89.02
70781;BME280;59514;48.810;2.134;2023-03-20T00:50:25;100843.44;;;4.73;90.40
70781;BME280;59514;48.810;2.134;2023-03-20T00:52:51;100836.00;;;4.68;89.46
70781;BME280;59514;48.810;2.134;2023-03-20T00:55:19;100831.50;;;4.69;89.88
70781;BME280;59514;48.810;2.134;2023-03-20T00:57:51;100840.47;;;4.68;90.02
70781;BME280;59514;48.810;2.134;2023-03-20T01:00:24;100838.81;;;4.67;89.94
70781;BME280;59514;48.810;2.134;2023-03-20T01:02:52;100836.72;;;4.54;90.87
70781;BME280;59514;48.810;2.134;2023-03-20T01:05:19;100829.44;;;4.48;91.21
70781;BME280;59514;48.810;2.134;2023-03-20T01:07:45;100832.97;;;4.41;91.01
70781;BME280;59514;48.810;2.134;2023-03-20T01:10:12;100837.59;;;4.47;91.28
70781;BME280;59514;48.810;2.134;2023-03-20T01:12:39;100835.59;;;4.49;91.22
70781;BME280;59514;48.810;2.134;2023-03-20T01:15:15;100839.56;;;4.53;91.89
70781;BME280;59514;48.810;2.134;2023-03-20T01:17:41;100847.88;;;4.50;90.33
70781;BME280;59514;48.810;2.134;2023-03-20T01:20:21;100849.56;;;4.51;92.18
70781;BME280;59514;48.810;2.134;2023-03-20T01:22:47;100847.41;;;4.46;91.04
70781;BME280;59514;48.810;2.134;2023-03-20T01:25:12;100856.53;;;4.44;91.41
70781;BME280;59514;48.810;2.134;2023-03-20T01:27:38;100854.25;;;4.41;91.20
70781;BME280;59514;48.810;2.134;2023-03-20T01:30:44;100853.88;;;4.44;91.88
70781;BME280;59514;48.810;2.134;2023-03-20T01:33:11;100853.59;;;4.38;92.15
70781;BME280;59514;48.810;2.134;2023-03-20T01:35:38;100854.25;;;4.41;92.51
70781;BME280;59514;48.810;2.134;2023-03-20T01:38:12;100853.09;;;4.43;90.99
70781;BME280;59514;48.810;2.134;2023-03-20T01:40:53;100852.94;;;4.36;91.27
70781;BME280;59514;48.810;2.134;2023-03-20T01:43:22;100851.63;;;4.32;91.50
70781;BME280;59514;48.810;2.134;2023-03-20T01:45:54;100847.94;;;4.33;91.99
70781;BME280;59514;48.810;2.134;2023-03-20T01:48:22;100842.53;;;4.27;91.75
70781;BME280;59514;48.810;2.134;2023-03-20T01:50:49;100836.66;;;4.31;91.49
70781;BME280;59514;48.810;2.134;2023-03-20T01:53:18;100831.34;;;4.31;91.56
70781;BME280;59514;48.810;2.134;2023-03-20T01:55:46;100826.88;;;4.32;91.14
70781;BME280;59514;48.810;2.134;2023-03-20T01:58:16;100826.69;;;4.33;90.71
70781;BME280;59514;48.810;2.134;2023-03-20T02:00:43;100827.34;;;4.35;91.14
70781;BME280;59514;48.810;2.134;2023-03-20T02:03:09;100826.34;;;4.36;91.15
70781;BME280;59514;48.810;2.134;2023-03-20T02:05:36;100822.53;;;4.39;91.14
70781;BME280;59514;48.810;2.134;2023-03-20T02:08:23;100825.34;;;4.37;91.69
70781;BME280;59514;48.810;2.134;2023-03-20T12:28:09;100748.63;;;13.56;59.36
70781;BME280;59514;48.810;2.134;2023-03-20T12:30:50;100741.31;;;14.42;58.08
70781;BME280;59514;48.810;2.134;2023-03-20T12:36:12;100741.31;;;14.71;57.91
70781;BME280;59514;48.810;2.134;2023-03-20T12:38:39;100735.50;;;14.79;56.85
70781;BME280;59514;48.810;2.134;2023-03-20T12:41:15;100731.59;;;14.41;57.66
70781;BME280;59514;48.810;2.134;2023-03-20T12:46:38;100734.09;;;14.31;58.48
70781;BME280;59514;48.810;2.134;2023-03-20T12:51:50;100725.38;;;14.18;58.78
70781;BME280;59514;48.810;2.134;2023-03-20T12:54:53;100722.63;;;14.01;59.51
70781;BME280;59514;48.810;2.134;2023-03-20T12:57:53;100728.28;;;14.00;60.51
70781;BME280;59514;48.810;2.134;2023-03-20T13:00:32;100725.84;;;14.26;60.39
70781;BME280;59514;48.810;2.134;2023-03-20T13:03:10;100726.44;;;14.28;59.57
70781;BME280;59514;48.810;2.134;2023-03-20T13:05:59;100723.41;;;14.13;59.31
70781;BME280;59514;48.810;2.134;2023-03-20T13:11:35;100718.91;;;13.79;60.06
70781;BME280;59514;48.810;2.134;2023-03-20T13:14:23;100711.13;;;13.94;60.07
70781;BME280;59514;48.810;2.134;2023-03-20T13:16:56;100707.06;;;14.20;60.61
70781;BME280;59514;48.810;2.134;2023-03-20T13:19:33;100712.53;;;13.97;59.21
70781;BME280;59514;48.810;2.134;2023-03-20T13:24:53;100708.03;;;13.51;61.27
70781;BME280;59514;48.810;2.134;2023-03-20T13:27:30;100707.84;;;13.92;60.87
70781;BME280;59514;48.810;2.134;2023-03-20T13:30:25;100709.19;;;14.18;60.27
70781;BME280;59514;48.810;2.134;2023-03-20T13:33:29;100701.50;;;13.98;60.76
70781;BME280;59514;48.810;2.134;2023-03-20T13:38:34;100693.56;;;14.20;61.03
70781;BME280;59514;48.810;2.134;2023-03-20T13:41:06;100690.53;;;14.73;59.94
70781;BME280;59514;48.810;2.134;2023-03-20T13:43:38;100687.75;;;14.84;59.06
70781;BME280;59514;48.810;2.134;2023-03-20T13:48:37;100698.34;;;14.41;59.93
70781;BME280;59514;48.810;2.134;2023-03-20T13:54:03;100678.56;;;14.12;60.68
70781;BME280;59514;48.810;2.134;2023-03-20T14:04:32;100663.66;;;14.49;59.92
70781;BME280;59514;48.810;2.134;2023-03-20T14:06:58;100665.19;;;14.62;60.15
70781;BME280;59514;48.810;2.134;2023-03-20T14:09:26;100668.56;;;14.52;60.82
70781;BME280;59514;48.810;2.134;2023-03-20T14:11:54;100655.41;;;14.73;60.56
70781;BME280;59514;48.810;2.134;2023-03-20T14:14:27;100660.03;;;14.60;60.93
70781;BME280;59514;48.810;2.134;2023-03-20T14:17:14;100657.09;;;14.45;60.99
70781;BME280;59514;48.810;2.134;2023-03-20T14:19:41;100662.22;;;14.19;61.56
70781;BME280;59514;48.810;2.134;2023-03-20T14:22:14;100659.50;;;14.30;61.69
70781;BME280;59514;48.810;2.134;2023-03-20T14:24:50;100652.91;;;14.54;61.88
70781;BME280;59514;48.810;2.134;2023-03-20T14:27:20;100646.94;;;14.86;60.41
70781;BME280;59514;48.810;2.134;2023-03-20T14:29:46;100641.31;;;14.71;60.41
70781;BME280;59514;48.810;2.134;2023-03-20T14:40:04;100634.69;;;14.05;62.66
70781;BME280;59514;48.810;2.134;2023-03-20T14:42:52;100641.13;;;14.16;62.64
70781;BME280;59514;48.810;2.134;2023-03-20T14:45:56;100635.00;;;14.65;61.25
70781;BME280;59514;48.810;2.134;2023-03-20T14:48:29;100634.44;;;14.63;60.93
70781;BME280;59514;48.810;2.134;2023-03-20T14:56:46;100633.75;;;15.06;60.81
70781;BME280;59514;48.810;2.134;2023-03-20T14:59:13;100626.09;;;14.81;61.78
70781;BME280;59514;48.810;2.134;2023-03-20T15:01:44;100626.81;;;14.77;61.37
70781;BME280;59514;48.810;2.134;2023-03-20T15:04:21;100622.38;;;14.71;62.55
70781;BME280;59514;48.810;2.134;2023-03-20T15:06:54;100618.50;;;15.00;61.97
70781;BME280;59514;48.810;2.134;2023-03-20T15:09:22;100617.25;;;15.07;61.64
70781;BME280;59514;48.810;2.134;2023-03-20T15:11:50;100611.53;;;15.04;62.13
70781;BME280;59514;48.810;2.134;2023-03-20T15:14:24;100600.97;;;15.40;60.46
70781;BME280;59514;48.810;2.134;2023-03-20T15:16:57;100602.53;;;15.15;59.57
70781;BME280;59514;48.810;2.134;2023-03-20T15:19:22;100603.38;;;14.65;61.63
70781;BME280;59514;48.810;2.134;2023-03-20T15:21:48;100609.53;;;14.61;62.86
70781;BME280;59514;48.810;2.134;2023-03-20T15:24:25;100603.78;;;14.74;62.45
70781;BME280;59514;48.810;2.134;2023-03-20T15:26:53;100601.25;;;14.67;63.24
70781;BME280;59514;48.810;2.134;2023-03-20T15:29:20;100592.75;;;14.59;62.26
70781;BME280;59514;48.810;2.134;2023-03-20T15:31:50;100600.59;;;14.60;62.48
70781;BME280;59514;48.810;2.134;2023-03-20T15:34:20;100594.78;;;14.68;62.09
70781;BME280;59514;48.810;2.134;2023-03-20T15:36:47;100593.88;;;14.46;62.62
70781;BME280;59514;48.810;2.134;2023-03-20T15:39:15;100584.22;;;14.67;63.24
70781;BME280;59514;48.810;2.134;2023-03-20T15:41:53;100578.00;;;14.66;62.52
70781;BME280;59514;48.810;2.134;2023-03-20T15:44:24;100583.56;;;14.77;62.40
70781;BME280;59514;48.810;2.134;2023-03-20T15:49:21;100569.72;;;14.56;62.35
70781;BME280;59514;48.810;2.134;2023-03-20T15:51:47;100576.53;;;14.59;61.73
70781;BME280;59514;48.810;2.134;2023-03-20T15:54:15;100567.75;;;14.68;61.83
70781;BME280;59514;48.810;2.134;2023-03-20T15:56:43;100563.56;;;14.78;61.18
70781;BME280;59514;48.810;2.134;2023-03-20T15:59:16;100568.97;;;14.78;61.17
70781;BME280;59514;48.810;2.134;2023-03-20T16:01:43;100572.34;;;14.85;61.62
70781;BME280;59514;48.810;2.134;2023-03-20T16:04:15;100577.00;;;14.56;56.93
70781;BME280;59514;48.810;2.134;2023-03-20T16:06:59;100566.38;;;14.49;56.36
70781;BME280;59514;48.810;2.134;2023-03-20T16:09:26;100561.13;;;14.59;56.29
70781;BME280;59514;48.810;2.134;2023-03-20T16:11:58;100561.78;;;14.50;56.20
70781;BME280;59514;48.810;2.134;2023-03-20T16:14:25;100557.19;;;14.50;55.82
70781;BME280;59514;48.810;2.134;2023-03-20T16:16:53;100555.47;;;14.44;55.73
70781;BME280;59514;48.810;2.134;2023-03-20T16:19:20;100556.88;;;14.47;56.15
70781;BME280;59514;48.810;2.134;2023-03-20T16:24:36;100540.47;;;14.70;55.74
70781;BME280;59514;48.810;2.134;2023-03-20T16:27:07;100540.63;;;14.63;55.78
70781;BME280;59514;48.810;2.134;2023-03-20T16:29:33;100533.28;;;14.59;56.12
70781;BME280;59514;48.810;2.134;2023-03-20T16:32:22;100521.66;;;14.42;55.78
70781;BME280;59514;48.810;2.134;2023-03-20T16:34:53;100540.81;;;14.40;55.28
70781;BME280;59514;48.810;2.134;2023-03-20T16:37:25;100535.25;;;14.30;55.88
70781;BME280;59514;48.810;2.134;2023-03-20T16:40:21;100541.44;;;14.14;56.93
70781;BME280;59514;48.810;2.134;2023-03-20T16:42:53;100539.31;;;14.16;58.12
70781;BME280;59514;48.810;2.134;2023-03-20T16:45:26;100541.75;;;14.18;57.93
70781;BME280;59514;48.810;2.134;2023-03-20T16:50:39;100533.91;;;14.00;59.05
70781;BME280;59514;48.810;2.134;2023-03-20T16:53:16;100532.38;;;13.92;59.51
70781;BME280;59514;48.810;2.134;2023-03-20T16:55:49;100536.63;;;13.88;60.32
70781;BME280;59514;48.810;2.134;2023-03-20T16:58:27;100540.72;;;13.91;61.34
70781;BME280;59514;48.810;2.134;2023-03-20T17:01:02;100528.53;;;13.88;61.25
70781;BME280;59514;48.810;2.134;2023-03-20T17:03:37;100530.19;;;13.89;61.64
70781;BME280;59514;48.810;2.134;2023-03-20T17:08:48;100517.34;;;13.79;62.15
70781;BME280;59514;48.810;2.134;2023-03-20T17:11:30;100513.22;;;13.77;61.63
70781;BME280;59514;48.810;2.134;2023-03-20T17:13:57;100518.50;;;13.83;61.89
70781;BME280;59514;48.810;2.134;2023-03-20T17:16:23;100522.78;;;13.68;62.25
70781;BME280;59514;48.810;2.134;2023-03-20T17:19:04;100524.66;;;13.67;62.49
70781;BME280;59514;48.810;2.134;2023-03-20T17:21:30;100526.44;;;13.62;62.53
70781;BME280;59514;48.810;2.134;2023-03-20T17:23:56;100530.69;;;13.58;62.48
70781;BME280;59514;48.810;2.134;2023-03-20T17:26:21;100523.06;;;13.55;63.22
70781;BME280;59514;48.810;2.134;2023-03-20T17:28:47;100521.31;;;13.49;63.79
70781;BME280;59514;48.810;2.134;2023-03-20T17:31:14;100526.72;;;13.49;64.24
70781;BME280;59514;48.810;2.134;2023-03-20T17:33:40;100522.84;;;13.45;64.11
70781;BME280;59514;48.810;2.134;2023-03-20T17:36:23;100523.00;;;13.38;64.76
70781;BME280;59514;48.810;2.134;2023-03-20T17:38:51;100538.00;;;13.34;65.21
70781;BME280;59514;48.810;2.134;2023-03-20T17:41:18;100529.13;;;13.34;65.59
70781;BME280;59514;48.810;2.134;2023-03-20T17:43:44;100527.97;;;13.30;65.81
70781;BME280;59514;48.810;2.134;2023-03-20T17:46:20;100529.25;;;13.27;65.76
70781;BME280;59514;48.810;2.134;2023-03-20T17:48:50;100536.09;;;13.18;66.07
70781;BME280;59514;48.810;2.134;2023-03-20T17:51:17;100539.47;;;13.14;66.87
70781;BME280;59514;48.810;2.134;2023-03-20T17:53:42;100538.56;;;13.08;67.10
70781;BME280;59514;48.810;2.134;2023-03-20T17:56:15;100542.06;;;13.09;67.74
70781;BME280;59514;48.810;2.134;2023-03-20T17:58:40;100533.38;;;13.07;67.87
70781;BME280;59514;48.810;2.134;2023-03-20T18:01:09;100537.97;;;13.06;67.91
70781;BME280;59514;48.810;2.134;2023-03-20T18:03:35;100541.00;;;12.98;68.09
70781;BME280;59514;48.810;2.134;2023-03-20T18:06:00;100542.88;;;12.97;67.86
70781;BME280;59514;48.810;2.134;2023-03-20T18:08:26;100535.81;;;12.96;68.28
70781;BME280;59514;48.810;2.134;2023-03-20T18:10:52;100542.53;;;12.94;68.79
70781;BME280;59514;48.810;2.134;2023-03-20T18:13:22;100541.56;;;12.88;69.03
70781;BME280;59514;48.810;2.134;2023-03-20T18:15:52;100545.91;;;12.89;68.91
70781;BME280;59514;48.810;2.134;2023-03-20T18:18:19;100551.66;;;12.81;69.30
70781;BME280;59514;48.810;2.134;2023-03-20T18:20:45;100553.31;;;12.82;69.51
70781;BME280;59514;48.810;2.134;2023-03-20T18:23:12;100550.84;;;12.81;69.30
70781;BME280;59514;48.810;2.134;2023-03-20T18:25:38;100544.66;;;12.80;69.53
70781;BME280;59514;48.810;2.134;2023-03-20T18:28:05;100546.75;;;12.78;70.25
70781;BME280;59514;48.810;2.134;2023-03-20T18:30:36;100545.59;;;12.74;70.46
70781;BME280;59514;48.810;2.134;2023-03-20T18:33:03;100553.53;;;12.69;70.76
70781;BME280;59514;48.810;2.134;2023-03-20T18:35:29;100550.59;;;12.71;71.05
70781;BME280;59514;48.810;2.134;2023-03-20T18:37:55;100544.63;;;12.69;70.86
70781;BME280;59514;48.810;2.134;2023-03-20T18:40:30;100550.50;;;12.66;71.48
70781;BME280;59514;48.810;2.134;2023-03-20T18:42:56;100550.16;;;12.62;71.66
70781;BME280;59514;48.810;2.134;2023-03-20T18:45:23;100551.44;;;12.60;71.89
70781;BME280;59514;48.810;2.134;2023-03-20T18:47:51;100549.56;;;12.60;71.99
70781;BME280;59514;48.810;2.134;2023-03-20T18:52:45;100549.19;;;12.57;72.25
70781;BME280;59514;48.810;2.134;2023-03-20T18:55:11;100547.56;;;12.56;72.16
70781;BME280;59514;48.810;2.134;2023-03-20T18:57:36;100554.22;;;12.53;72.67
70781;BME280;59514;48.810;2.134;2023-03-20T19:00:15;100550.94;;;12.51;72.79
70781;BME280;59514;48.810;2.134;2023-03-20T19:02:41;100558.44;;;12.49;73.04
70781;BME280;59514;48.810;2.134;2023-03-20T19:05:07;100556.81;;;12.48;72.78
70781;BME280;59514;48.810;2.134;2023-03-20T19:07:32;100546.25;;;12.47;72.98
70781;BME280;59514;48.810;2.134;2023-03-20T19:09:58;100546.84;;;12.49;72.97
70781;BME280;59514;48.810;2.134;2023-03-20T19:12:23;100549.78;;;12.47;73.05
70781;BME280;59514;48.810;2.134;2023-03-20T19:14:48;100548.16;;;12.46;74.22
70781;BME280;59514;48.810;2.134;2023-03-20T19:17:13;100546.50;;;12.45;74.33
70781;BME280;59514;48.810;2.134;2023-03-20T19:19:39;100544.53;;;12.41;75.16
70781;BME280;59514;48.810;2.134;2023-03-20T19:22:04;100543.34;;;12.37;75.25
70781;BME280;59514;48.810;2.134;2023-03-20T19:24:29;100545.44;;;12.35;75.23
70781;BME280;59514;48.810;2.134;2023-03-20T19:26:55;100537.56;;;12.33;75.50
70781;BME280;59514;48.810;2.134;2023-03-20T19:29:21;100543.44;;;12.30;76.37
70781;BME280;59514;48.810;2.134;2023-03-20T19:31:46;100543.44;;;12.30;75.88
70781;BME280;59514;48.810;2.134;2023-03-20T19:34:12;100535.59;;;12.29;76.48
70781;BME280;59514;48.810;2.134;2023-03-20T19:36:37;100541.44;;;12.26;76.69
70781;BME280;59514;48.810;2.134;2023-03-20T19:39:05;100541.09;;;12.22;76.71
70781;BME280;59514;48.810;2.134;2023-03-20T19:41:30;100541.09;;;12.22;77.21
70781;BME280;59514;48.810;2.134;2023-03-20T19:43:56;100535.69;;;12.22;77.55
70781;BME280;59514;48.810;2.134;2023-03-20T19:46:23;100537.31;;;12.23;77.27
70781;BME280;59514;48.810;2.134;2023-03-20T19:48:49;100529.50;;;12.22;77.45
70781;BME280;59514;48.810;2.134;2023-03-20T19:51:17;100529.50;;;12.22;77.99
70781;BME280;59514;48.810;2.134;2023-03-20T19:53:44;100533.00;;;12.22;77.58
70781;BME280;59514;48.810;2.134;2023-03-20T19:56:10;100529.72;;;12.20;77.97
70781;BME280;59514;48.810;2.134;2023-03-20T19:58:37;100528.06;;;12.19;77.23
70781;BME280;59514;48.810;2.134;2023-03-20T20:01:02;100534.53;;;12.18;78.60
70781;BME280;59514;48.810;2.134;2023-03-20T20:03:28;100535.34;;;12.19;77.33
70781;BME280;59514;48.810;2.134;2023-03-20T20:05:54;100525.38;;;12.19;77.23
70781;BME280;59514;48.810;2.134;2023-03-20T20:08:19;100530.75;;;12.19;77.20
70781;BME280;59514;48.810;2.134;2023-03-20T20:10:47;100524.00;;;12.17;77.92
70781;BME280;59514;48.810;2.134;2023-03-20T20:13:27;100522.94;;;12.18;77.31
70781;BME280;59514;48.810;2.134;2023-03-20T20:15:53;100524.19;;;12.15;77.48
70781;BME280;59514;48.810;2.134;2023-03-20T20:18:21;100527.47;;;12.17;77.06
70781;BME280;59514;48.810;2.134;2023-03-20T20:20:47;100517.19;;;12.14;77.57
70781;BME280;59514;48.810;2.134;2023-03-20T20:23:21;100515.34;;;12.15;77.33
70781;BME280;59514;48.810;2.134;2023-03-20T20:25:48;100515.53;;;12.13;77.43
70781;BME280;59514;48.810;2.134;2023-03-20T20:28:16;100524.19;;;12.15;77.50
70781;BME280;59514;48.810;2.134;2023-03-20T20:30:45;100518.22;;;12.13;77.17
70781;BME280;59514;48.810;2.134;2023-03-20T20:33:10;100517.19;;;12.14;77.14
70781;BME280;59514;48.810;2.134;2023-03-20T20:35:36;100516.97;;;12.16;76.63
70781;BME280;59514;48.810;2.134;2023-03-20T20:38:01;100510.53;;;12.17;76.29
70781;BME280;59514;48.810;2.134;2023-03-20T20:40:26;100507.59;;;12.18;76.18
70781;BME280;59514;48.810;2.134;2023-03-20T20:42:53;100507.59;;;12.18;75.96
70781;BME280;59514;48.810;2.134;2023-03-20T20:45:21;100502.22;;;12.18;75.97
70781;BME280;59514;48.810;2.134;2023-03-20T20:47:47;100507.59;;;12.18;75.88
70781;BME280;59514;48.810;2.134;2023-03-20T20:50:15;100506.53;;;12.19;75.49
70781;BME280;59514;48.810;2.134;2023-03-20T20:52:42;100498.47;;;12.19;75.13
70781;BME280;59514;48.810;2.134;2023-03-20T20:55:09;100494.75;;;12.20;75.86
70781;BME280;59514;48.810;2.134;2023-03-20T20:57:35;100496.34;;;12.21;75.87
70781;BME280;59514;48.810;2.134;2023-03-20T21:00:00;100493.09;;;12.19;75.58
70781;BME280;59514;48.810;2.134;2023-03-20T21:02:28;100497.44;;;12.20;75.52
70781;BME280;59514;48.810;2.134;2023-03-20T21:04:54;100484.41;;;12.17;75.67
70781;BME280;59514;48.810;2.134;2023-03-20T21:07:20;100490.97;;;12.21;75.95
70781;BME280;59514;48.810;2.134;2023-03-20T21:09:46;100493.91;;;12.20;75.81
70781;BME280;59514;48.810;2.134;2023-03-20T21:12:12;100493.91;;;12.20;75.83
70781;BME280;59514;48.810;2.134;2023-03-20T21:14:39;100492.50;;;12.17;76.58
70781;BME280;59514;48.810;2.134;2023-03-20T21:17:05;100486.06;;;12.18;76.38
70781;BME280;59514;48.810;2.134;2023-03-20T21:19:41;100484.41;;;12.17;76.36
70781;BME280;59514;48.810;2.134;2023-03-20T21:22:09;100477.41;;;12.16;76.77
70781;BME280;59514;48.810;2.134;2023-03-20T21:24:35;100479.38;;;12.09;77.06
70781;BME280;59514;48.810;2.134;2023-03-20T21:27:03;100478.34;;;12.10;76.41
70781;BME280;59514;48.810;2.134;2023-03-20T21:29:29;100473.78;;;12.10;76.04
70781;BME280;59514;48.810;2.134;2023-03-20T21:31:55;100477.84;;;12.13;76.18
70781;BME280;59514;48.810;2.134;2023-03-20T21:34:20;100475.16;;;12.13;75.92
70781;BME280;59514;48.810;2.134;2023-03-20T21:36:46;100471.44;;;12.14;76.32
70781;BME280;59514;48.810;2.134;2023-03-20T21:39:12;100467.09;;;12.13;76.65
70781;BME280;59514;48.810;2.134;2023-03-20T21:41:39;100472.72;;;12.11;76.17
70781;BME280;59514;48.810;2.134;2023-03-20T21:44:06;100471.31;;;12.09;76.82
70781;BME280;59514;48.810;2.134;2023-03-20T21:46:32;100469.69;;;12.08;76.85
70781;BME280;59514;48.810;2.134;2023-03-20T21:48:58;100473.88;;;12.04;77.27
70781;BME280;59514;48.810;2.134;2023-03-20T21:51:23;100461.00;;;12.06;77.18
70781;BME280;59514;48.810;2.134;2023-03-20T21:53:49;100468.84;;;12.07;77.45
70781;BME280;59514;48.810;2.134;2023-03-20T21:56:14;100453.53;;;12.08;76.76
70781;BME280;59514;48.810;2.134;2023-03-20T21:58:39;100456.22;;;12.08;76.98
70781;BME280;59514;48.810;2.134;2023-03-20T22:01:05;100467.22;;;12.06;77.59
70781;BME280;59514;48.810;2.134;2023-03-20T22:03:30;100455.03;;;12.04;78.14
70781;BME280;59514;48.810;2.134;2023-03-20T22:05:56;100452.34;;;12.04;77.73
70781;BME280;59514;48.810;2.134;2023-03-20T22:08:21;100452.34;;;12.04;78.37
70781;BME280;59514;48.810;2.134;2023-03-20T22:10:48;100453.53;;;12.08;77.87
70781;BME280;59514;48.810;2.134;2023-03-20T22:13:14;100455.88;;;12.04;77.71
70781;BME280;59514;48.810;2.134;2023-03-20T22:15:40;100453.63;;;12.01;78.28
70781;BME280;59514;48.810;2.134;2023-03-20T22:18:05;100455.28;;;12.02;78.67
70781;BME280;59514;48.810;2.134;2023-03-20T22:20:31;100447.44;;;12.01;78.20
70781;BME280;59514;48.810;2.134;2023-03-20T22:22:56;100454.69;;;12.00;78.47
70781;BME280;59514;48.810;2.134;2023-03-20T22:25:22;100451.19;;;12.00;78.43
70781;BME280;59514;48.810;2.134;2023-03-20T22:27:47;100449.56;;;11.99;78.33
70781;BME280;59514;48.810;2.134;2023-03-20T22:30:12;100450.81;;;11.96;78.64
70781;BME280;59514;48.810;2.134;2023-03-20T22:32:38;100442.16;;;11.94;78.30
70781;BME280;59514;48.810;2.134;2023-03-20T22:35:05;100438.66;;;11.94;78.59
70781;BME280;59514;48.810;2.134;2023-03-20T22:37:30;100448.38;;;11.95;78.31
70781;BME280;59514;48.810;2.134;2023-03-20T22:39:55;100442.63;;;11.91;78.31
70781;BME280;59514;48.810;2.134;2023-03-20T22:42:21;100441.34;;;11.94;78.57
70781;BME280;59514;48.810;2.134;2023-03-20T22:44:46;100440.16;;;11.90;78.13
70781;BME280;59514;48.810;2.134;2023-03-20T22:47:14;100440.16;;;11.90;78.15
70781;BME280;59514;48.810;2.134;2023-03-20T22:49:39;100436.44;;;11.91;77.83
70781;BME280;59514;48.810;2.134;2023-03-20T22:52:05;100435.38;;;11.92;77.73
70781;BME280;59514;48.810;2.134;2023-03-20T22:54:30;100429.75;;;11.93;77.20
70781;BME280;59514;48.810;2.134;2023-03-20T22:56:56;100428.56;;;11.89;78.19
70781;BME280;59514;48.810;2.134;2023-03-20T22:59:21;100423.91;;;11.85;77.88
70781;BME280;59514;48.810;2.134;2023-03-20T23:01:46;100416.88;;;11.84;78.26
70781;BME280;59514;48.810;2.134;2023-03-20T23:04:12;100412.56;;;11.83;78.57
70781;BME280;59514;48.810;2.134;2023-03-20T23:06:37;100415.47;;;11.81;78.40
70781;BME280;59514;48.810;2.134;2023-03-20T23:09:02;100409.72;;;11.78;78.55
70781;BME280;59514;48.810;2.134;2023-03-20T23:11:28;100403.53;;;11.77;79.04
70781;BME280;59514;48.810;2.134;2023-03-20T23:13:53;100407.53;;;11.75;79.24
70781;BME280;59514;48.810;2.134;2023-03-20T23:16:19;100402.94;;;11.75;79.32
70781;BME280;59514;48.810;2.134;2023-03-20T23:18:44;100398.63;;;11.74;78.84
70781;BME280;59514;48.810;2.134;2023-03-20T23:21:10;100391.38;;;11.75;79.38
70781;BME280;59514;48.810;2.134;2023-03-20T23:23:36;100393.00;;;11.76;79.05
70781;BME280;59514;48.810;2.134;2023-03-20T23:26:07;100386.22;;;11.73;79.12
70781;BME280;59514;48.810;2.134;2023-03-20T23:28:34;100383.75;;;11.72;79.43
70781;BME280;59514;48.810;2.134;2023-03-20T23:31:12;100387.03;;;11.74;79.18
70781;BME280;59514;48.810;2.134;2023-03-20T23:33:43;100376.75;;;11.71;79.89
70781;BME280;59514;48.810;2.134;2023-03-20T23:36:08;100377.78;;;11.70;79.95
70781;BME280;59514;48.810;2.134;2023-03-20T23:38:35;100372.91;;;11.67;80.18
70781;BME280;59514;48.810;2.134;2023-03-20T23:41:00;100368.91;;;11.69;79.44
70781;BME280;59514;48.810;2.134;2023-03-20T23:43:26;100373.31;;;11.64;79.82
70781;BME280;59514;48.810;2.134;2023-03-20T23:45:51;100363.81;;;11.61;80.27
70781;BME280;59514;48.810;2.134;2023-03-20T23:48:17;100362.88;;;11.56;80.45
70781;BME280;59514;48.810;2.134;2023-03-20T23:50:45;100366.66;;;11.55;80.16
70781;BME280;59514;48.810;2.134;2023-03-20T23:53:11;100369.19;;;11.50;79.69
70781;BME280;59514;48.810;2.134;2023-03-20T23:55:37;100377.06;;;11.51;80.04
70781;BME280;59514;48.810;2.134;2023-03-20T23:58:03;100365.91;;;11.48;79.72
